This is the latest recevied weather packets stored in our database for station/object VA3JLF-1. If no packets are shown the sender has not sent any weather packets the latest 10 day(s).
| Time | Temp. | Humidity | Pressure | Rain* | Wind** | Luminosity | Snow |
|---|---|---|---|---|---|---|---|
| 1777849558 | 7.78° C | 68% | 1005.2 hPa | 0 mm | - | - | - |
| 1777848958 | 8.33° C | 66% | 1005.1 hPa | 0 mm | - | - | - |
| 1777848359 | 8.33° C | 65% | 1005.2 hPa | 0 mm | - | - | - |
| 1777847759 | 8.33° C | 63% | 1005.2 hPa | 0 mm | - | - | - |
| 1777847157 | 8.33° C | 65% | 1005.2 hPa | 0 mm | - | - | - |
| 1777846557 | 8.33° C | 67% | 1005.2 hPa | 0 mm | - | - | - |
| 1777845958 | 8.33° C | 68% | 1005.5 hPa | 0 mm | - | - | - |
| 1777845357 | 8.89° C | 65% | 1005.5 hPa | 0 mm | - | - | - |
| 1777844760 | 10° C | 55% | 1005.4 hPa | 0 mm | - | - | - |
| 1777844157 | 10° C | 54% | 1005.4 hPa | 0 mm | - | - | - |
| 1777843557 | 10° C | 47% | 1005.3 hPa | 0 mm | - | - | - |
| 1777842958 | 11.11° C | 52% | 1005.4 hPa | 0 mm | - | - | - |
| 1777842357 | 10.56° C | 50% | 1005.5 hPa | 0 mm | - | - | - |
| 1777841757 | 11.67° C | 52% | 1005.5 hPa | 0 mm | - | - | - |
| 1777841157 | 11.11° C | 51% | 1005.6 hPa | 0 mm | - | - | - |
| 1777840557 | 11.11° C | 53% | 1005.5 hPa | 0 mm | - | - | - |
| 1777839957 | 10.56° C | 54% | 1005.8 hPa | 0 mm | - | - | - |
| 1777839357 | 10.56° C | 54% | 1005.8 hPa | 0 mm | - | - | - |
| 1777838758 | 11.11° C | 54% | 1006.1 hPa | 0 mm | - | - | - |
| 1777838157 | 11.11° C | 56% | 1006.4 hPa | 0 mm | - | - | - |
| 1777837557 | 11.11° C | 54% | 1006.4 hPa | 0 mm | - | - | - |
| 1777836958 | 10.56° C | 60% | 1006.9 hPa | 0 mm | - | - | - |
| 1777836357 | 10° C | 61% | 1007.1 hPa | 0 mm | - | - | - |
| 1777835757 | 9.44° C | 63% | 1007.3 hPa | 0 mm | - | - | - |
| 1777835157 | 10° C | 63% | 1007.3 hPa | 0 mm | - | - | - |
* Rain latest hour (hover to see other rain measurements)
** Current wind speed in m/s (hover to see current wind gust speed)